Time;durP1;ratioP1;P1;durP2;ratioP2;P2;SDS_P1;SDS_P2;PMS_P1;PMS_P2;Temp;Humidity;BMP_temperature;BMP_pressure;BME280_temperature;BME280_humidity;BME280_pressure;Samples;Min_cycle;Max_cycle;Signal;HPM_P1;HPM_P2
2023/05/26 02:00:45;;;;;;;10.43;5.57;;;;;;;;;;4893076;27;20107;-83
2023/05/26 02:03:12;;;;;;;9.18;5.03;;;;;;;;;;4294062;33;20046;-79
2023/05/26 02:05:39;;;;;;;7.80;4.97;;;;;;;;;;4295163;33;20401;-81
2023/05/26 02:08:06;;;;;;;8.32;5.35;;;;;;;;;;4297373;33;20052;-80
2023/05/26 02:10:32;;;;;;;11.10;5.12;;;;;;;;;;4297430;33;20083;-81
2023/05/26 02:12:58;;;;;;;14.00;5.72;;;;;;;;;;4296203;33;20057;-80
2023/05/26 02:15:24;;;;;;;10.25;4.60;;;;;;;;;;4296926;33;20079;-82
2023/05/26 02:17:54;;;;;;;7.28;4.22;;;;;;;;;;4295652;33;20049;-76
2023/05/26 02:20:20;;;;;;;9.07;4.62;;;;;;;;;;4296996;33;20077;-81
2023/05/26 02:22:47;;;;;;;17.08;4.47;;;;;;;;;;4294502;33;20049;-79
2023/05/26 02:25:15;;;;;;;14.82;5.65;;;;;;;;;;4294876;33;20060;-80
2023/05/26 02:27:41;;;;;;;10.50;5.03;;;;;;;;;;4294353;33;20068;-82
2023/05/26 02:30:09;;;;;;;10.10;5.15;;;;;;;;;;4292564;33;20079;-75
2023/05/26 02:32:36;;;;;;;11.30;5.03;;;;;;;;;;4294567;33;20447;-80
2023/05/26 02:35:03;;;;;;;10.38;4.43;;;;;;;;;;4294546;33;20090;-79
2023/05/26 02:37:31;;;;;;;9.07;4.20;;;;;;;;;;4294652;33;20100;-82
2023/05/26 02:39:57;;;;;;;11.00;4.60;;;;;;;;;;4293242;33;20068;-80
2023/05/26 02:42:23;;;;;;;10.52;4.10;;;;;;;;;;4263475;33;20385;-78
2023/05/26 02:44:50;;;;;;;6.45;4.12;;;;;;;;;;4266205;33;20061;-80
2023/05/26 02:47:17;;;;;;;9.98;4.03;;;;;;;;;;4264830;33;20472;-81
2023/05/26 02:49:44;;;;;;;12.07;3.75;;;;;;;;;;4265896;33;20580;-81
2023/05/26 02:52:10;;;;;;;6.00;3.58;;;;;;;;;;4265232;33;20049;-75
2023/05/26 02:54:36;;;;;;;10.70;3.72;;;;;;;;;;4266725;33;20075;-78
2023/05/26 02:57:03;;;;;;;10.73;3.85;;;;;;;;;;4273052;33;20491;-81
2023/05/26 02:59:29;;;;;;;10.38;4.10;;;;;;;;;;4280929;33;20150;-81
2023/05/26 03:01:59;;;;;;;10.68;4.25;;;;;;;;;;4287024;33;20053;-81
2023/05/26 03:04:25;;;;;;;7.65;4.25;;;;;;;;;;4282755;33;20050;-78
2023/05/26 03:06:51;;;;;;;15.40;4.87;;;;;;;;;;4284127;33;20340;-78
2023/05/26 03:09:17;;;;;;;8.90;3.70;;;;;;;;;;4283356;33;20045;-79
2023/05/26 03:11:44;;;;;;;8.45;4.32;;;;;;;;;;4285592;33;20045;-80
2023/05/26 03:14:10;;;;;;;7.28;3.72;;;;;;;;;;4288388;33;20037;-81
2023/05/26 03:16:36;;;;;;;7.95;3.17;;;;;;;;;;4286553;33;20635;-77
2023/05/26 03:19:03;;;;;;;10.63;3.15;;;;;;;;;;4282576;33;20077;-82
2023/05/26 03:21:30;;;;;;;7.30;3.28;;;;;;;;;;4277305;33;20069;-80
2023/05/26 03:23:56;;;;;;;6.47;3.58;;;;;;;;;;4279997;33;20053;-78
2023/05/26 03:26:22;;;;;;;11.95;3.55;;;;;;;;;;4280024;33;20438;-81
2023/05/26 03:28:49;;;;;;;10.43;3.80;;;;;;;;;;4276598;33;20042;-80
2023/05/26 03:31:15;;;;;;;9.65;4.00;;;;;;;;;;4279641;33;20057;-81
2023/05/26 03:33:42;;;;;;;7.82;3.85;;;;;;;;;;4279431;33;20081;-79
2023/05/26 03:36:09;;;;;;;5.65;3.40;;;;;;;;;;4279716;33;20054;-80
2023/05/26 03:38:35;;;;;;;10.18;3.62;;;;;;;;;;4279854;33;20038;-76
2023/05/26 03:41:02;;;;;;;10.18;3.37;;;;;;;;;;4273657;33;20092;-80
2023/05/26 03:43:28;;;;;;;10.57;3.40;;;;;;;;;;4276487;33;20041;-78
2023/05/26 03:45:54;;;;;;;9.40;4.12;;;;;;;;;;4279751;33;20124;-79
2023/05/26 03:48:20;;;;;;;6.15;4.05;;;;;;;;;;4279724;33;20109;-80
2023/05/26 03:50:47;;;;;;;8.07;3.05;;;;;;;;;;4279349;33;20495;-75
2023/05/26 03:53:14;;;;;;;6.37;3.22;;;;;;;;;;4277994;33;20071;-82
2023/05/26 03:55:41;;;;;;;10.57;3.75;;;;;;;;;;4279600;33;20053;-81
2023/05/26 03:58:07;;;;;;;10.52;4.60;;;;;;;;;;4279610;33;20090;-81
2023/05/26 04:00:36;;;;;;;10.10;3.15;;;;;;;;;;4279591;33;20050;-80
2023/05/26 04:03:02;;;;;;;7.22;3.55;;;;;;;;;;4277894;33;20399;-77
2023/05/26 04:05:29;;;;;;;9.70;4.45;;;;;;;;;;4266239;33;20449;-80
2023/05/26 04:07:56;;;;;;;8.00;3.55;;;;;;;;;;4273597;33;20063;-82
2023/05/26 04:10:23;;;;;;;7.47;2.87;;;;;;;;;;4274601;33;20057;-81
2023/05/26 04:12:48;;;;;;;15.73;4.50;;;;;;;;;;4264766;33;20072;-76
2023/05/26 04:15:15;;;;;;;7.85;4.05;;;;;;;;;;4264589;33;20478;-81
2023/05/26 04:17:41;;;;;;;11.73;4.03;;;;;;;;;;4267926;33;20053;-82
2023/05/26 04:20:10;;;;;;;6.00;4.05;;;;;;;;;;4267129;33;20132;-82
2023/05/26 04:22:37;;;;;;;12.43;4.22;;;;;;;;;;4267309;33;20037;-81
2023/05/26 04:25:03;;;;;;;7.70;3.42;;;;;;;;;;4256448;33;20124;-81
2023/05/26 04:27:30;;;;;;;9.57;3.85;;;;;;;;;;4253116;33;20133;-83
2023/05/26 04:29:58;;;;;;;10.23;3.62;;;;;;;;;;4241054;33;20081;-80
2023/05/26 04:32:25;;;;;;;5.93;3.65;;;;;;;;;;4245589;33;20068;-78
2023/05/26 04:34:58;;;;;;;8.27;4.12;;;;;;;;;;4224502;34;20518;-81
2023/05/26 04:37:27;;;;;;;8.95;3.60;;;;;;;;;;4223692;33;20456;-81
2023/05/26 04:39:53;;;;;;;17.80;4.37;;;;;;;;;;4224694;33;20084;-79
2023/05/26 04:42:19;;;;;;;12.93;5.10;;;;;;;;;;4198312;34;20047;-80
2023/05/26 04:44:45;;;;;;;10.02;4.32;;;;;;;;;;4196627;34;20055;-80
2023/05/26 04:47:12;;;;;;;11.05;5.45;;;;;;;;;;4195381;34;20075;-82
2023/05/26 04:49:38;;;;;;;8.68;3.62;;;;;;;;;;4211108;34;20055;-79
2023/05/26 04:52:04;;;;;;;9.77;4.85;;;;;;;;;;4210874;34;20355;-79
2023/05/26 04:54:31;;;;;;;13.25;4.70;;;;;;;;;;4211043;34;20478;-78
2023/05/26 04:56:57;;;;;;;17.80;4.70;;;;;;;;;;4210417;34;20069;-75
2023/05/26 04:59:26;;;;;;;10.93;4.55;;;;;;;;;;4209259;34;20039;-80
2023/05/26 05:01:52;;;;;;;11.93;3.90;;;;;;;;;;4210267;34;20063;-82
2023/05/26 05:04:19;;;;;;;11.82;3.95;;;;;;;;;;4210876;34;20072;-81
2023/05/26 05:06:46;;;;;;;6.47;3.50;;;;;;;;;;4209282;34;20426;-81
2023/05/26 05:09:13;;;;;;;7.75;4.60;;;;;;;;;;4208897;34;20425;-81
2023/05/26 05:11:39;;;;;;;8.48;3.40;;;;;;;;;;4231829;33;20072;-81
2023/05/26 05:14:05;;;;;;;12.88;3.70;;;;;;;;;;4273677;33;20424;-81
2023/05/26 05:16:31;;;;;;;11.82;3.60;;;;;;;;;;4283416;33;20080;-81
2023/05/26 05:18:58;;;;;;;11.00;3.35;;;;;;;;;;4283700;33;20075;-80
2023/05/26 05:21:24;;;;;;;12.40;3.60;;;;;;;;;;4273196;33;20050;-79
2023/05/26 05:23:51;;;;;;;5.78;3.80;;;;;;;;;;4282643;33;20061;-83
2023/05/26 05:26:17;;;;;;;6.97;3.37;;;;;;;;;;4272111;33;20511;-81
2023/05/26 05:28:43;;;;;;;13.10;3.83;;;;;;;;;;4265649;33;20053;-81
2023/05/26 05:31:09;;;;;;;27.35;6.62;;;;;;;;;;4266637;33;20042;-82
2023/05/26 05:33:40;;;;;;;9.20;3.60;;;;;;;;;;4263620;33;20071;-80
2023/05/26 05:36:06;;;;;;;14.50;4.45;;;;;;;;;;4266511;33;20053;-78
2023/05/26 05:38:33;;;;;;;10.23;3.30;;;;;;;;;;4266425;33;20054;-80
2023/05/26 05:40:59;;;;;;;7.22;3.35;;;;;;;;;;4266212;33;20173;-78
2023/05/26 05:43:27;;;;;;;9.43;3.12;;;;;;;;;;4266565;33;20192;-80
2023/05/26 05:45:53;;;;;;;7.65;3.20;;;;;;;;;;4265199;33;20060;-80
2023/05/26 05:48:21;;;;;;;27.05;3.97;;;;;;;;;;4266804;33;20564;-83
2023/05/26 05:50:47;;;;;;;17.17;4.28;;;;;;;;;;4264312;33;20072;-78
2023/05/26 05:53:14;;;;;;;11.20;3.97;;;;;;;;;;4265974;33;20394;-82
2023/05/26 05:55:40;;;;;;;15.15;3.95;;;;;;;;;;4250672;33;20050;-78
2023/05/26 05:58:07;;;;;;;14.18;4.10;;;;;;;;;;4236937;33;20047;-80
2023/05/26 06:00:34;;;;;;;13.68;4.07;;;;;;;;;;4235162;33;20046;-80
2023/05/26 06:03:01;;;;;;;10.02;5.05;;;;;;;;;;4223707;34;20051;-81
2023/05/26 06:05:27;;;;;;;15.02;3.37;;;;;;;;;;4223769;34;20030;-82
2023/05/26 06:07:53;;;;;;;13.80;3.47;;;;;;;;;;4220397;34;20059;-79
2023/05/26 06:10:19;;;;;;;10.80;3.33;;;;;;;;;;4223441;33;20047;-83
2023/05/26 06:12:45;;;;;;;9.55;2.67;;;;;;;;;;4231838;33;20488;-82
2023/05/26 06:15:11;;;;;;;5.78;2.65;;;;;;;;;;4237881;33;20144;-83
2023/05/26 06:17:38;;;;;;;11.93;3.08;;;;;;;;;;4237577;33;20098;-82
2023/05/26 06:20:04;;;;;;;12.52;3.53;;;;;;;;;;4235545;33;20063;-77
2023/05/26 06:22:30;;;;;;;13.10;4.18;;;;;;;;;;4223350;34;20051;-81
2023/05/26 06:24:56;;;;;;;6.87;2.60;;;;;;;;;;4195630;34;20051;-81
2023/05/26 06:27:22;;;;;;;12.98;3.53;;;;;;;;;;4195309;34;20223;-81
2023/05/26 06:29:48;;;;;;;12.32;3.75;;;;;;;;;;4201634;34;20065;-80
2023/05/26 06:32:16;;;;;;;21.00;4.60;;;;;;;;;;4208018;34;20062;-82
2023/05/26 06:34:42;;;;;;;13.35;3.37;;;;;;;;;;4209515;34;20074;-79
2023/05/26 06:37:08;;;;;;;16.00;3.37;;;;;;;;;;4210044;33;20619;-82
2023/05/26 06:39:35;;;;;;;13.57;3.72;;;;;;;;;;4221951;33;20051;-83
2023/05/26 06:42:01;;;;;;;18.92;4.55;;;;;;;;;;4195598;34;20393;-81
2023/05/26 06:44:28;;;;;;;15.80;3.60;;;;;;;;;;4195255;34;20039;-76
2023/05/26 06:46:55;;;;;;;21.48;5.32;;;;;;;;;;4184431;34;20056;-79
2023/05/26 06:49:23;;;;;;;15.90;3.08;;;;;;;;;;4181799;34;20482;-83
2023/05/26 06:51:52;;;;;;;13.77;3.50;;;;;;;;;;4181624;34;20113;-80
2023/05/26 06:54:18;;;;;;;20.62;5.03;;;;;;;;;;4190328;34;20398;-82
2023/05/26 06:56:45;;;;;;;18.02;4.68;;;;;;;;;;4215121;33;20058;-78
2023/05/26 06:59:11;;;;;;;27.40;3.65;;;;;;;;;;4225280;34;20061;-79
2023/05/26 07:01:38;;;;;;;12.88;3.47;;;;;;;;;;4243402;33;20079;-80
2023/05/26 07:04:03;;;;;;;17.58;3.25;;;;;;;;;;4249561;33;20058;-80
2023/05/26 07:06:32;;;;;;;18.50;4.80;;;;;;;;;;4249865;33;20191;-85
2023/05/26 07:08:58;;;;;;;10.52;3.75;;;;;;;;;;4250603;33;20077;-74
2023/05/26 07:11:25;;;;;;;9.82;3.28;;;;;;;;;;4252213;33;20046;-82
2023/05/26 07:13:52;;;;;;;11.10;4.65;;;;;;;;;;4257832;33;20865;-80
2023/05/26 07:16:19;;;;;;;15.23;3.03;;;;;;;;;;4253760;33;20372;-79
2023/05/26 07:21:21;;;;;;;15.55;3.15;;;;;;;;;;4282516;33;20059;-78
2023/05/26 07:23:48;;;;;;;16.70;4.00;;;;;;;;;;4281971;33;20288;-80
2023/05/26 07:26:14;;;;;;;9.75;3.45;;;;;;;;;;4280884;33;20078;-82
2023/05/26 07:28:41;;;;;;;5.03;2.65;;;;;;;;;;4280661;33;20029;-82
2023/05/26 07:31:08;;;;;;;13.10;2.92;;;;;;;;;;4252312;33;20053;-79
2023/05/26 07:33:34;;;;;;;10.23;3.03;;;;;;;;;;4263692;33;20198;-78
2023/05/26 07:36:00;;;;;;;14.65;3.15;;;;;;;;;;4265491;33;20050;-78
2023/05/26 07:38:27;;;;;;;6.68;2.80;;;;;;;;;;4265549;33;20380;-81
2023/05/26 07:40:53;;;;;;;11.52;3.25;;;;;;;;;;4265156;33;20067;-81
2023/05/26 07:43:19;;;;;;;8.20;2.97;;;;;;;;;;4265302;33;20064;-78
2023/05/26 07:45:46;;;;;;;9.45;3.70;;;;;;;;;;4263859;33;20071;-80
2023/05/26 07:48:13;;;;;;;12.00;3.17;;;;;;;;;;4265445;33;20042;-82
2023/05/26 07:50:40;;;;;;;9.15;3.00;;;;;;;;;;4266653;33;20067;-81
2023/05/26 07:53:06;;;;;;;16.92;3.70;;;;;;;;;;4268322;33;20049;-82
2023/05/26 07:55:32;;;;;;;10.40;2.60;;;;;;;;;;4250862;33;20074;-74
2023/05/26 07:57:58;;;;;;;8.15;3.20;;;;;;;;;;4253610;33;20042;-82
2023/05/26 08:00:32;;;;;;;9.07;2.97;;;;;;;;;;4247747;33;20078;-78
2023/05/26 08:02:58;;;;;;;15.02;3.72;;;;;;;;;;4263158;33;20034;-82
2023/05/26 08:05:26;;;;;;;15.68;3.80;;;;;;;;;;4266602;33;20055;-76
2023/05/26 08:07:52;;;;;;;7.85;3.03;;;;;;;;;;4267744;33;20077;-81
2023/05/26 08:10:19;;;;;;;13.73;3.55;;;;;;;;;;4266804;33;20042;-82
2023/05/26 08:12:45;;;;;;;6.90;3.17;;;;;;;;;;4266972;33;20056;-79
2023/05/26 08:15:12;;;;;;;9.68;2.85;;;;;;;;;;4267349;33;20519;-81
2023/05/26 08:17:38;;;;;;;18.77;3.45;;;;;;;;;;4264041;33;20401;-74
2023/05/26 08:20:05;;;;;;;18.23;5.30;;;;;;;;;;4266148;33;20430;-81
2023/05/26 08:22:30;;;;;;;15.55;3.92;;;;;;;;;;4266956;33;20048;-80
2023/05/26 08:24:58;;;;;;;13.05;3.92;;;;;;;;;;4266494;33;20079;-79
2023/05/26 08:27:24;;;;;;;16.83;3.25;;;;;;;;;;4280723;33;20050;-77
2023/05/26 08:29:50;;;;;;;11.70;3.65;;;;;;;;;;4281278;33;20081;-78
2023/05/26 08:32:16;;;;;;;17.05;3.20;;;;;;;;;;4283601;33;20068;-80
2023/05/26 08:34:42;;;;;;;16.27;4.68;;;;;;;;;;4283201;33;20049;-81
2023/05/26 08:37:11;;;;;;;8.40;3.08;;;;;;;;;;4283854;33;20045;-79
2023/05/26 08:39:38;;;;;;;14.32;3.20;;;;;;;;;;4283982;33;20080;-81
2023/05/26 08:42:05;;;;;;;9.15;2.95;;;;;;;;;;4282174;33;20452;-74
2023/05/26 08:44:35;;;;;;;16.25;4.50;;;;;;;;;;4281397;33;20386;-80
2023/05/26 08:47:05;;;;;;;12.95;3.62;;;;;;;;;;4283386;33;20093;-78
2023/05/26 08:49:36;;;;;;;11.48;2.83;;;;;;;;;;4283330;33;20045;-78
2023/05/26 08:52:04;;;;;;;14.25;5.07;;;;;;;;;;4276465;33;20106;-78
2023/05/26 08:54:31;;;;;;;8.52;3.22;;;;;;;;;;4280784;33;20057;-77
2023/05/26 08:56:57;;;;;;;9.18;3.05;;;;;;;;;;4280282;33;20165;-78
2023/05/26 08:59:24;;;;;;;12.90;3.95;;;;;;;;;;4279077;33;20061;-77
2023/05/26 09:01:50;;;;;;;12.82;3.92;;;;;;;;;;4277843;33;20063;-76
2023/05/26 09:04:16;;;;;;;12.57;2.80;;;;;;;;;;4280262;33;20067;-79
2023/05/26 09:06:44;;;;;;;9.23;3.62;;;;;;;;;;4280190;33;20033;-78
2023/05/26 09:09:11;;;;;;;14.40;3.55;;;;;;;;;;4280693;33;20481;-76
2023/05/26 09:11:41;;;;;;;11.85;2.42;;;;;;;;;;4280631;33;20067;-77
2023/05/26 09:14:16;;;;;;;10.70;2.92;;;;;;;;;;4278881;33;20109;-77
2023/05/26 09:16:42;;;;;;;11.40;4.25;;;;;;;;;;4279987;33;20037;-78
2023/05/26 09:19:13;;;;;;;18.73;3.65;;;;;;;;;;4280196;33;20078;-77
2023/05/26 09:21:44;;;;;;;5.75;2.47;;;;;;;;;;4275111;33;20049;-80
2023/05/26 09:24:13;;;;;;;13.80;3.37;;;;;;;;;;4265597;33;20085;-77
2023/05/26 09:26:39;;;;;;;10.02;2.85;;;;;;;;;;4266226;33;20049;-79
2023/05/26 09:29:05;;;;;;;8.18;2.80;;;;;;;;;;4266209;33;20058;-78
2023/05/26 09:31:42;;;;;;;9.35;2.60;;;;;;;;;;4265801;33;20093;-77
2023/05/26 09:34:09;;;;;;;7.62;2.70;;;;;;;;;;4262675;33;20042;-79
2023/05/26 09:36:36;;;;;;;10.30;3.10;;;;;;;;;;4265782;33;21044;-78
2023/05/26 09:39:03;;;;;;;14.55;6.95;;;;;;;;;;4265884;33;20085;-77
2023/05/26 09:41:39;;;;;;;11.30;3.17;;;;;;;;;;4284906;33;20030;-72
2023/05/26 09:44:11;;;;;;;15.30;3.00;;;;;;;;;;4284446;33;20067;-72
2023/05/26 09:46:38;;;;;;;16.48;3.03;;;;;;;;;;4286518;33;20045;-75
2023/05/26 09:49:12;;;;;;;17.10;3.22;;;;;;;;;;4273443;33;20367;-75
2023/05/26 09:51:40;;;;;;;9.32;3.70;;;;;;;;;;4272963;33;20071;-77
2023/05/26 09:54:08;;;;;;;7.12;2.97;;;;;;;;;;4270294;33;20525;-77
2023/05/26 09:56:36;;;;;;;11.23;2.78;;;;;;;;;;4271964;33;20315;-73
2023/05/26 09:59:05;;;;;;;12.60;2.10;;;;;;;;;;4256353;33;20135;-73
2023/05/26 10:01:35;;;;;;;7.32;3.30;;;;;;;;;;4257331;33;20067;-73
2023/05/26 10:04:03;;;;;;;14.87;4.47;;;;;;;;;;4257923;33;20826;-74
2023/05/26 10:06:31;;;;;;;8.30;3.58;;;;;;;;;;4237531;33;20054;-75
2023/05/26 10:08:57;;;;;;;5.97;2.35;;;;;;;;;;4238273;33;20499;-71
2023/05/26 10:11:25;;;;;;;10.23;3.00;;;;;;;;;;4237666;33;20494;-77
2023/05/26 10:13:52;;;;;;;18.08;3.42;;;;;;;;;;4221779;33;20094;-75
2023/05/26 10:16:18;;;;;;;5.15;2.78;;;;;;;;;;4222326;34;20042;-77
2023/05/26 10:18:44;;;;;;;7.53;2.08;;;;;;;;;;4235765;33;20385;-77
2023/05/26 10:21:11;;;;;;;4.93;2.08;;;;;;;;;;4239321;33;20543;-76
2023/05/26 10:23:43;;;;;;;6.47;2.37;;;;;;;;;;4249084;33;20080;-79
2023/05/26 10:26:23;;;;;;;7.22;3.00;;;;;;;;;;4249493;33;20027;-75
2023/05/26 10:28:57;;;;;;;5.80;1.95;;;;;;;;;;4252211;33;20092;-77
2023/05/26 10:31:30;;;;;;;18.15;3.03;;;;;;;;;;4282525;33;20045;-76
2023/05/26 10:36:31;;;;;;;4.20;1.92;;;;;;;;;;4286333;33;20068;-76
2023/05/26 10:38:57;;;;;;;8.93;2.95;;;;;;;;;;4272302;33;20046;-77
2023/05/26 10:41:36;;;;;;;6.78;1.85;;;;;;;;;;4271077;33;20033;-76
2023/05/26 10:44:03;;;;;;;4.43;1.95;;;;;;;;;;4270879;33;20053;-76
2023/05/26 10:46:45;;;;;;;4.32;1.85;;;;;;;;;;4256895;33;20034;-78
2023/05/26 10:49:19;;;;;;;6.45;2.87;;;;;;;;;;4253504;33;20154;-78
2023/05/26 10:51:48;;;;;;;7.45;3.08;;;;;;;;;;4257410;33;20072;-78
2023/05/26 10:54:18;;;;;;;8.38;3.10;;;;;;;;;;4257406;33;20050;-78
2023/05/26 10:56:48;;;;;;;6.90;2.20;;;;;;;;;;4257801;33;20080;-78
2023/05/26 10:59:40;;;;;;;6.55;2.55;;;;;;;;;;4258547;33;20388;-77
2023/05/26 11:02:07;;;;;;;8.05;1.85;;;;;;;;;;4430429;28;20087;-73
2023/05/26 11:04:43;;;;;;;5.95;2.67;;;;;;;;;;4267602;33;20075;-77
2023/05/26 11:07:16;;;;;;;10.57;2.05;;;;;;;;;;4270070;33;20438;-78
2023/05/26 11:10:02;;;;;;;8.27;2.83;;;;;;;;;;4275072;33;20045;-80
2023/05/26 11:12:47;;;;;;;5.22;2.15;;;;;;;;;;4281194;33;21135;-78
2023/05/26 11:15:27;;;;;;;9.68;2.03;;;;;;;;;;4281510;33;20382;-77
2023/05/26 11:17:54;;;;;;;7.82;2.83;;;;;;;;;;4280852;33;20064;-76
2023/05/26 11:20:21;;;;;;;20.67;3.47;;;;;;;;;;4278088;33;20130;-79
2023/05/26 11:22:46;;;;;;;6.15;2.50;;;;;;;;;;4279262;33;20506;-77
2023/05/26 11:25:13;;;;;;;9.65;3.50;;;;;;;;;;4280157;33;20493;-76
2023/05/26 11:27:44;;;;;;;7.57;2.65;;;;;;;;;;4280293;33;20071;-74
2023/05/26 11:30:10;;;;;;;5.25;2.45;;;;;;;;;;4280649;33;20041;-79
2023/05/26 11:32:43;;;;;;;12.57;3.22;;;;;;;;;;4281971;33;20075;-77
2023/05/26 11:35:26;;;;;;;5.03;2.42;;;;;;;;;;4281695;33;20134;-73
2023/05/26 11:37:52;;;;;;;9.07;2.70;;;;;;;;;;4281703;33;20128;-81
2023/05/26 11:40:19;;;;;;;10.05;2.10;;;;;;;;;;4281834;33;20053;-79
2023/05/26 11:42:46;;;;;;;10.40;2.65;;;;;;;;;;4267368;33;20033;-78
2023/05/26 11:45:12;;;;;;;11.38;3.17;;;;;;;;;;4264781;33;20046;-77
2023/05/26 11:47:39;;;;;;;14.38;2.30;;;;;;;;;;4267332;33;20046;-73
2023/05/26 11:50:07;;;;;;;7.43;3.35;;;;;;;;;;4267183;33;20157;-73
2023/05/26 11:52:32;;;;;;;16.95;4.97;;;;;;;;;;4252437;33;20059;-73
2023/05/26 11:54:59;;;;;;;10.85;3.90;;;;;;;;;;4251003;33;20062;-75
2023/05/26 11:57:30;;;;;;;5.75;2.25;;;;;;;;;;4253040;33;20046;-74
2023/05/26 11:59:57;;;;;;;9.32;3.08;;;;;;;;;;4251147;33;20092;-72
2023/05/26 12:02:23;;;;;;;10.90;3.05;;;;;;;;;;4258999;33;20074;-72
2023/05/26 12:04:50;;;;;;;12.57;3.70;;;;;;;;;;4258557;33;20109;-72
2023/05/26 12:07:26;;;;;;;16.52;2.97;;;;;;;;;;4262244;33;20230;-72
2023/05/26 12:10:05;;;;;;;8.88;2.90;;;;;;;;;;4232928;33;20096;-72
2023/05/26 12:12:33;;;;;;;6.82;2.35;;;;;;;;;;4229849;33;20057;-70
2023/05/26 12:15:03;;;;;;;10.98;2.83;;;;;;;;;;4250334;33;20409;-72
2023/05/26 12:17:29;;;;;;;5.12;2.42;;;;;;;;;;4252096;33;20519;-76
2023/05/26 12:19:55;;;;;;;6.62;2.65;;;;;;;;;;4250679;33;20365;-77
2023/05/26 12:22:27;;;;;;;9.57;2.65;;;;;;;;;;4251916;33;20111;-74
2023/05/26 12:24:57;;;;;;;7.53;2.17;;;;;;;;;;4252153;33;20061;-76
2023/05/26 12:27:33;;;;;;;9.15;2.60;;;;;;;;;;4250126;33;20049;-78
2023/05/26 12:29:59;;;;;;;6.05;2.90;;;;;;;;;;4252652;33;20094;-79
2023/05/26 12:32:26;;;;;;;12.20;3.67;;;;;;;;;;4249695;33;20080;-79
2023/05/26 12:34:52;;;;;;;6.12;2.55;;;;;;;;;;4251338;33;20054;-71
2023/05/26 12:37:18;;;;;;;9.43;2.78;;;;;;;;;;4250965;33;20038;-71
2023/05/26 12:39:45;;;;;;;10.32;2.47;;;;;;;;;;4248844;33;20439;-73
2023/05/26 12:42:10;;;;;;;9.73;2.80;;;;;;;;;;4268986;33;20117;-73
2023/05/26 12:44:37;;;;;;;9.23;3.37;;;;;;;;;;4266851;33;20424;-73
2023/05/26 12:47:04;;;;;;;3.47;2.50;;;;;;;;;;4266437;33;20231;-74
2023/05/26 12:49:30;;;;;;;16.98;3.20;;;;;;;;;;4268697;33;20034;-72
2023/05/26 12:51:57;;;;;;;7.10;2.97;;;;;;;;;;4268480;33;20077;-71
2023/05/26 12:54:23;;;;;;;4.78;2.92;;;;;;;;;;4268268;33;20475;-71
2023/05/26 12:56:50;;;;;;;11.52;2.55;;;;;;;;;;4267389;33;20045;-75
2023/05/26 12:59:17;;;;;;;6.72;2.20;;;;;;;;;;4268563;33;20843;-74
2023/05/26 13:01:44;;;;;;;9.65;2.72;;;;;;;;;;4273337;33;20452;-73
2023/05/26 13:04:10;;;;;;;5.55;2.25;;;;;;;;;;4278027;33;20059;-73
2023/05/26 13:06:36;;;;;;;12.05;2.92;;;;;;;;;;4279628;33;20961;-74
2023/05/26 13:09:04;;;;;;;9.52;2.60;;;;;;;;;;4279331;33;20480;-71
2023/05/26 13:11:29;;;;;;;9.95;3.30;;;;;;;;;;4278185;33;20095;-73
2023/05/26 13:13:56;;;;;;;12.88;2.83;;;;;;;;;;4278180;33;20063;-72
2023/05/26 13:16:22;;;;;;;6.65;2.03;;;;;;;;;;4279856;33;20049;-73
2023/05/26 13:18:48;;;;;;;11.95;2.65;;;;;;;;;;4277505;33;20052;-70
2023/05/26 13:21:14;;;;;;;5.25;2.12;;;;;;;;;;4279292;33;20034;-73
2023/05/26 13:23:41;;;;;;;12.85;2.28;;;;;;;;;;4266230;33;20194;-73
2023/05/26 13:26:07;;;;;;;11.00;2.78;;;;;;;;;;4265859;33;20383;-74
2023/05/26 13:28:33;;;;;;;14.18;2.15;;;;;;;;;;4251155;33;20056;-72
2023/05/26 13:31:00;;;;;;;8.25;2.53;;;;;;;;;;4249230;33;20071;-79
2023/05/26 13:33:26;;;;;;;11.55;2.97;;;;;;;;;;4251008;33;20034;-78
2023/05/26 13:35:52;;;;;;;11.70;3.87;;;;;;;;;;4239169;33;20105;-72
2023/05/26 13:38:18;;;;;;;9.90;2.45;;;;;;;;;;4236865;33;20440;-72
2023/05/26 13:40:44;;;;;;;6.03;2.40;;;;;;;;;;4236045;33;20086;-72
2023/05/26 13:43:11;;;;;;;5.87;2.30;;;;;;;;;;4233990;33;20437;-72
2023/05/26 13:45:44;;;;;;;9.13;2.45;;;;;;;;;;4237790;33;20076;-72
2023/05/26 13:48:11;;;;;;;11.00;2.37;;;;;;;;;;4237586;33;20051;-80
2023/05/26 13:50:37;;;;;;;8.50;2.58;;;;;;;;;;4235896;33;20077;-70
2023/05/26 13:53:03;;;;;;;6.55;2.22;;;;;;;;;;4235728;33;20037;-73
2023/05/26 13:55:29;;;;;;;11.60;3.37;;;;;;;;;;4248730;33;20084;-71
2023/05/26 13:57:56;;;;;;;7.85;2.08;;;;;;;;;;4251391;33;20070;-71
2023/05/26 14:00:22;;;;;;;9.13;2.75;;;;;;;;;;4275111;33;20157;-72
2023/05/26 14:02:50;;;;;;;8.50;2.60;;;;;;;;;;4280404;33;20071;-69
2023/05/26 14:05:18;;;;;;;11.07;3.30;;;;;;;;;;4282866;33;20236;-72
2023/05/26 14:07:44;;;;;;;12.30;2.30;;;;;;;;;;4278809;33;20058;-72
2023/05/26 14:10:11;;;;;;;6.82;2.05;;;;;;;;;;4280241;33;20407;-71
2023/05/26 14:12:37;;;;;;;8.82;2.85;;;;;;;;;;4278205;33;20075;-71
2023/05/26 14:15:05;;;;;;;5.30;2.15;;;;;;;;;;4280034;33;20453;-79
2023/05/26 14:17:32;;;;;;;9.55;3.33;;;;;;;;;;4281032;33;20394;-82
2023/05/26 14:19:58;;;;;;;9.77;1.92;;;;;;;;;;4280949;33;20084;-78
2023/05/26 14:22:24;;;;;;;12.32;2.95;;;;;;;;;;4281625;33;20052;-72
2023/05/26 14:24:50;;;;;;;10.00;2.40;;;;;;;;;;4280222;33;20037;-73
2023/05/26 14:27:18;;;;;;;8.95;2.70;;;;;;;;;;4281742;33;20061;-72
2023/05/26 14:29:44;;;;;;;8.80;2.70;;;;;;;;;;4281882;33;20061;-75
2023/05/26 14:32:10;;;;;;;8.68;3.15;;;;;;;;;;4282043;33;20379;-77
2023/05/26 14:34:36;;;;;;;7.95;2.58;;;;;;;;;;4280939;33;20063;-80
2023/05/26 14:37:03;;;;;;;13.85;3.00;;;;;;;;;;4279875;33;20105;-72
2023/05/26 14:39:29;;;;;;;10.38;2.47;;;;;;;;;;4279341;33;20081;-72
2023/05/26 14:41:55;;;;;;;5.07;2.08;;;;;;;;;;4282138;33;20460;-73
2023/05/26 14:44:21;;;;;;;10.60;2.30;;;;;;;;;;4281589;33;20596;-73
2023/05/26 14:46:48;;;;;;;6.07;2.10;;;;;;;;;;4281200;33;20037;-70
2023/05/26 14:49:14;;;;;;;9.35;2.62;;;;;;;;;;4281863;33;20080;-73
2023/05/26 14:51:40;;;;;;;7.03;3.20;;;;;;;;;;4281488;33;20057;-73
2023/05/26 14:54:06;;;;;;;5.87;2.37;;;;;;;;;;4282098;33;20045;-73
2023/05/26 14:56:32;;;;;;;5.35;2.20;;;;;;;;;;4281778;33;20057;-73
2023/05/26 14:58:59;;;;;;;5.53;2.62;;;;;;;;;;4280703;33;20439;-70
2023/05/26 15:01:25;;;;;;;6.62;2.40;;;;;;;;;;4281139;33;20057;-73
2023/05/26 15:03:51;;;;;;;3.08;2.20;;;;;;;;;;4282541;33;20063;-72
2023/05/26 15:06:18;;;;;;;12.50;2.42;;;;;;;;;;4281555;33;20068;-73
2023/05/26 15:08:44;;;;;;;6.28;2.60;;;;;;;;;;4281498;33;20041;-73
2023/05/26 15:11:12;;;;;;;6.35;2.35;;;;;;;;;;4280064;33;20060;-71
2023/05/26 15:13:38;;;;;;;6.93;2.67;;;;;;;;;;4281710;33;20049;-72
2023/05/26 15:16:05;;;;;;;8.38;2.53;;;;;;;;;;4281646;33;20041;-73
2023/05/26 15:18:30;;;;;;;15.00;2.55;;;;;;;;;;4279968;33;20049;-72
2023/05/26 15:21:02;;;;;;;16.60;2.53;;;;;;;;;;4279736;33;20466;-73
2023/05/26 15:23:28;;;;;;;;;;;;;;;;;;4277576;33;20058;-74
2023/05/26 15:25:54;;;;;;;4.03;2.42;;;;;;;;;;4279217;33;19960;-73
2023/05/26 15:28:26;;;;;;;11.35;2.90;;;;;;;;;;4277458;33;20042;-72
2023/05/26 15:30:53;;;;;;;6.35;2.78;;;;;;;;;;4278752;33;20139;-71
2023/05/26 15:33:21;;;;;;;7.62;2.22;;;;;;;;;;4278385;33;20800;-72
2023/05/26 15:35:48;;;;;;;11.07;2.62;;;;;;;;;;4279353;33;20467;-71
2023/05/26 15:38:14;;;;;;;9.50;3.45;;;;;;;;;;4280853;33;20422;-73
2023/05/26 15:40:40;;;;;;;9.70;2.55;;;;;;;;;;4280629;33;20156;-72
2023/05/26 15:43:06;;;;;;;5.65;1.95;;;;;;;;;;4280351;33;20037;-72
2023/05/26 15:45:32;;;;;;;21.10;2.62;;;;;;;;;;4280013;33;20111;-73
2023/05/26 15:47:58;;;;;;;9.80;2.58;;;;;;;;;;4282386;33;20113;-73
2023/05/26 15:50:25;;;;;;;7.15;3.00;;;;;;;;;;4279830;33;20067;-72
2023/05/26 15:52:51;;;;;;;8.80;2.65;;;;;;;;;;4282586;33;20061;-79
2023/05/26 15:55:17;;;;;;;17.42;2.35;;;;;;;;;;4282416;33;20037;-78
2023/05/26 15:57:43;;;;;;;11.52;2.58;;;;;;;;;;4280400;33;20097;-71
2023/05/26 16:00:10;;;;;;;7.32;2.35;;;;;;;;;;4280913;33;20089;-71
2023/05/26 16:02:37;;;;;;;10.98;2.47;;;;;;;;;;4280848;33;20053;-72
2023/05/26 16:05:03;;;;;;;4.85;3.10;;;;;;;;;;4280985;33;20079;-71
2023/05/26 16:07:29;;;;;;;10.05;2.45;;;;;;;;;;4281048;33;20462;-72
2023/05/26 16:09:55;;;;;;;9.15;2.28;;;;;;;;;;4278523;33;20146;-71
2023/05/26 16:12:21;;;;;;;12.40;2.80;;;;;;;;;;4283231;33;20093;-72
2023/05/26 16:14:48;;;;;;;7.20;2.72;;;;;;;;;;4270238;33;20086;-73
2023/05/26 16:17:15;;;;;;;5.85;2.75;;;;;;;;;;4282955;33;20038;-74
2023/05/26 16:19:41;;;;;;;14.20;2.62;;;;;;;;;;4281759;33;20122;-72
2023/05/26 16:22:07;;;;;;;8.43;2.65;;;;;;;;;;4280596;33;20091;-71
2023/05/26 16:24:34;;;;;;;4.53;2.45;;;;;;;;;;4283460;33;20186;-72
2023/05/26 16:27:00;;;;;;;9.55;2.47;;;;;;;;;;4280961;33;20487;-72
2023/05/26 16:29:26;;;;;;;7.45;2.22;;;;;;;;;;4281030;33;20057;-71
2023/05/26 16:31:52;;;;;;;8.27;2.47;;;;;;;;;;4280915;33;20059;-72
2023/05/26 16:34:18;;;;;;;7.25;2.70;;;;;;;;;;4279720;33;20598;-70
2023/05/26 16:36:44;;;;;;;12.90;2.45;;;;;;;;;;4279669;33;20026;-73
2023/05/26 16:39:15;;;;;;;6.62;2.12;;;;;;;;;;4265242;33;20127;-72
2023/05/26 16:41:44;;;;;;;14.40;2.30;;;;;;;;;;4264798;33;20085;-72